createdAt,value
2022-12-31T00:00:38.912Z,1.40
2022-12-31T00:02:42.610Z,1.70
2022-12-31T00:04:46.039Z,1.40
2022-12-31T00:06:49.347Z,3.00
2022-12-31T00:08:55.615Z,1.50
2022-12-31T00:10:58.803Z,4.00
2022-12-31T00:13:04.141Z,4.93
2022-12-31T00:15:08.432Z,8.23
2022-12-31T00:17:12.022Z,4.10
2022-12-31T00:19:15.254Z,1.97
2022-12-31T00:21:20.987Z,1.40
2022-12-31T00:23:24.028Z,1.50
2022-12-31T00:25:28.499Z,1.13
2022-12-31T00:27:31.797Z,1.60
2022-12-31T00:29:35.133Z,4.50
2022-12-31T00:31:39.536Z,2.00
2022-12-31T00:33:43.934Z,2.43
2022-12-31T00:35:47.091Z,2.20
2022-12-31T00:37:52.673Z,4.07
2022-12-31T00:39:55.858Z,1.30
2022-12-31T00:42:00.437Z,2.33
2022-12-31T00:44:03.879Z,1.40
2022-12-31T00:46:07.923Z,4.13
2022-12-31T00:48:11.506Z,1.77
2022-12-31T00:50:14.610Z,1.40
2022-12-31T00:52:18.319Z,2.57
2022-12-31T00:54:21.437Z,1.20
2022-12-31T00:56:25.983Z,1.23
2022-12-31T00:58:30.693Z,1.03
2022-12-31T01:00:33.817Z,1.30
2022-12-31T01:02:37.086Z,1.60
2022-12-31T01:04:40.294Z,2.83
2022-12-31T01:06:44.167Z,1.50
2022-12-31T01:08:49.844Z,1.27
2022-12-31T01:11:10.802Z,1.80
2022-12-31T01:13:14.216Z,1.70
2022-12-31T01:15:18.950Z,1.23
2022-12-31T01:17:21.997Z,3.20
2022-12-31T01:19:27.289Z,2.00
2022-12-31T01:21:31.232Z,2.17
2022-12-31T01:23:34.425Z,1.50
2022-12-31T01:25:38.242Z,1.97
2022-12-31T01:27:41.356Z,2.03
2022-12-31T01:29:44.725Z,2.07
2022-12-31T01:31:49.142Z,1.10
2022-12-31T01:33:52.836Z,1.90
2022-12-31T01:35:55.985Z,3.87
2022-12-31T01:37:59.202Z,1.80
2022-12-31T01:40:02.238Z,1.53
2022-12-31T01:42:05.937Z,1.83
2022-12-31T01:44:42.398Z,1.77
2022-12-31T01:46:49.567Z,1.57
2022-12-31T01:48:54.518Z,2.27
2022-12-31T01:50:57.673Z,1.70
2022-12-31T01:53:03.547Z,1.50
2022-12-31T01:55:11.542Z,4.37
2022-12-31T01:57:15.202Z,1.50
2022-12-31T01:59:19.106Z,4.00
2022-12-31T02:01:25.875Z,1.40
2022-12-31T02:03:30.864Z,1.93
2022-12-31T02:05:39.837Z,4.60
2022-12-31T02:07:43.066Z,1.37
2022-12-31T02:09:46.250Z,2.13
2022-12-31T02:11:49.360Z,2.37
2022-12-31T02:13:58.281Z,2.03
2022-12-31T02:16:07.130Z,2.90
2022-12-31T02:18:15.833Z,2.80
2022-12-31T02:20:47.417Z,1.60
2022-12-31T02:23:07.567Z,1.80
2022-12-31T02:25:24.586Z,1.57
2022-12-31T02:27:39.061Z,2.60
2022-12-31T02:30:17.269Z,1.30
2022-12-31T02:32:24.963Z,3.23
2022-12-31T02:34:32.150Z,1.30
2022-12-31T02:36:37.790Z,2.00
2022-12-31T02:38:46.223Z,2.57
2022-12-31T02:40:49.554Z,2.30
2022-12-31T02:42:55.587Z,2.10
2022-12-31T02:44:59.159Z,3.10
2022-12-31T02:47:13.287Z,1.70
2022-12-31T02:49:21.915Z,2.60
2022-12-31T02:51:35.693Z,1.40
2022-12-31T02:54:12.201Z,1.90
2022-12-31T02:56:18.203Z,2.37
2022-12-31T02:58:45.636Z,1.40
2022-12-31T03:01:09.356Z,2.43
2022-12-31T03:03:13.156Z,1.70
2022-12-31T03:05:19.532Z,4.63
2022-12-31T03:07:25.151Z,1.77
2022-12-31T03:09:28.202Z,4.03
2022-12-31T03:11:48.594Z,1.50
2022-12-31T03:13:51.779Z,1.60
2022-12-31T03:15:54.890Z,1.50
2022-12-31T03:18:00.505Z,2.00
2022-12-31T03:20:21.129Z,2.40
2022-12-31T03:22:27.405Z,2.43
2022-12-31T03:24:48.027Z,2.37
2022-12-31T03:26:51.173Z,1.70
2022-12-31T03:28:54.250Z,1.97
2022-12-31T03:30:59.415Z,2.50
2022-12-31T03:33:03.233Z,1.63
2022-12-31T03:35:07.212Z,2.23
2022-12-31T03:37:11.893Z,3.30
2022-12-31T03:39:16.344Z,2.00
2022-12-31T03:41:19.431Z,3.63
2022-12-31T03:43:22.639Z,1.60
2022-12-31T03:45:25.756Z,1.73
2022-12-31T03:47:29.068Z,1.77
2022-12-31T03:49:32.088Z,1.60
2022-12-31T03:51:35.193Z,2.70
2022-12-31T03:53:38.289Z,2.40
2022-12-31T03:55:43.413Z,1.93
2022-12-31T03:57:46.548Z,2.03
2022-12-31T03:59:49.717Z,1.67
2022-12-31T04:01:53.011Z,2.83
2022-12-31T04:03:56.503Z,1.80
2022-12-31T04:05:59.661Z,1.80
2022-12-31T04:08:03.078Z,2.30
2022-12-31T04:10:07.993Z,1.40
2022-12-31T04:12:12.507Z,1.40
2022-12-31T04:14:17.228Z,1.50
2022-12-31T04:16:20.301Z,4.10
2022-12-31T04:18:23.371Z,2.43
2022-12-31T04:20:26.465Z,2.83
2022-12-31T04:22:29.463Z,2.13
2022-12-31T04:24:32.786Z,1.80
2022-12-31T04:26:36.102Z,1.30
2022-12-31T04:28:40.629Z,1.67
2022-12-31T04:30:43.625Z,1.70
2022-12-31T04:32:46.733Z,2.13
2022-12-31T04:34:50.038Z,1.60
2022-12-31T04:36:53.176Z,1.80
2022-12-31T04:38:57.184Z,4.03
2022-12-31T04:41:18.309Z,2.43
2022-12-31T04:43:21.368Z,1.63
2022-12-31T04:45:25.855Z,6.20
2022-12-31T04:47:28.888Z,1.20
2022-12-31T04:49:32.065Z,1.27
2022-12-31T04:51:35.628Z,1.70
2022-12-31T04:53:38.826Z,1.97
2022-12-31T04:55:42.367Z,1.70
2022-12-31T04:57:45.447Z,1.17
2022-12-31T04:59:48.433Z,1.20
2022-12-31T05:01:53.067Z,1.60
2022-12-31T05:03:56.198Z,1.20
2022-12-31T05:06:02.683Z,1.47
2022-12-31T05:08:06.322Z,1.30
2022-12-31T05:10:09.552Z,1.50
2022-12-31T05:12:12.669Z,1.73
2022-12-31T05:14:15.820Z,3.30
2022-12-31T05:16:18.875Z,1.63
2022-12-31T05:18:23.515Z,1.30
2022-12-31T05:20:26.569Z,1.40
2022-12-31T05:22:30.188Z,1.47
2022-12-31T05:24:33.387Z,1.47
2022-12-31T05:26:36.411Z,1.77
2022-12-31T05:28:39.858Z,2.17
2022-12-31T05:30:43.294Z,1.43
2022-12-31T05:32:46.485Z,1.20
2022-12-31T05:34:53.551Z,1.60
2022-12-31T05:36:59.181Z,1.30
2022-12-31T05:39:02.271Z,1.73
2022-12-31T05:41:07.309Z,1.40
2022-12-31T05:43:10.322Z,3.27
2022-12-31T05:45:14.059Z,1.50
2022-12-31T05:47:17.229Z,1.60
2022-12-31T05:49:20.181Z,1.73
2022-12-31T05:51:24.541Z,1.20
2022-12-31T05:53:27.714Z,1.30
2022-12-31T05:55:30.764Z,1.50
2022-12-31T05:57:34.087Z,2.33
2022-12-31T05:59:37.225Z,2.00
2022-12-31T06:01:40.700Z,1.40
2022-12-31T06:03:43.843Z,3.00
2022-12-31T06:05:47.065Z,1.40
2022-12-31T06:07:51.608Z,1.87
2022-12-31T06:09:54.849Z,1.47
2022-12-31T06:11:57.896Z,1.57
2022-12-31T06:14:00.908Z,1.60
2022-12-31T06:16:06.876Z,2.30
2022-12-31T06:18:09.923Z,1.50
2022-12-31T06:20:13.511Z,2.03
2022-12-31T06:22:16.624Z,1.87
2022-12-31T06:24:21.351Z,1.50
2022-12-31T06:26:24.338Z,1.57
2022-12-31T06:28:27.477Z,1.60
2022-12-31T06:30:30.586Z,2.13
2022-12-31T06:32:36.052Z,1.93
2022-12-31T06:34:39.098Z,1.70
2022-12-31T06:36:42.369Z,2.40
2022-12-31T06:38:45.669Z,1.50
2022-12-31T06:40:50.176Z,1.50
2022-12-31T06:42:59.726Z,1.43
2022-12-31T06:45:03.504Z,2.27
2022-12-31T06:47:06.707Z,2.17
2022-12-31T06:49:09.782Z,2.03
2022-12-31T06:51:17.232Z,1.43
2022-12-31T06:53:20.596Z,1.50
2022-12-31T06:55:24.325Z,1.40
2022-12-31T06:57:29.497Z,2.53
2022-12-31T06:59:33.131Z,1.73
2022-12-31T07:01:49.978Z,1.73
2022-12-31T07:03:58.134Z,1.60
2022-12-31T07:06:04.800Z,1.33
2022-12-31T07:08:16.910Z,1.57
2022-12-31T07:10:29.707Z,1.73
2022-12-31T07:12:42.812Z,1.30
2022-12-31T07:14:47.878Z,2.13
2022-12-31T07:16:57.564Z,3.70
2022-12-31T07:19:11.209Z,1.30
2022-12-31T07:21:16.383Z,1.63
2022-12-31T07:23:20.341Z,1.83
2022-12-31T07:25:24.449Z,1.50
2022-12-31T07:27:44.476Z,2.23
2022-12-31T07:30:00.283Z,2.50
2022-12-31T07:32:12.779Z,1.77
2022-12-31T07:34:21.472Z,1.40
2022-12-31T07:36:47.125Z,3.57
2022-12-31T07:38:55.004Z,4.30
2022-12-31T07:41:09.345Z,4.07
2022-12-31T07:43:19.189Z,2.10
2022-12-31T07:45:27.397Z,2.93
2022-12-31T07:47:31.041Z,1.87
2022-12-31T07:49:35.383Z,2.40
2022-12-31T07:51:39.109Z,1.57
2022-12-31T07:53:42.113Z,3.43
2022-12-31T07:55:45.270Z,1.87
2022-12-31T07:57:53.076Z,3.23
2022-12-31T08:00:06.396Z,3.17
2022-12-31T08:02:23.323Z,2.03
2022-12-31T08:04:30.004Z,1.93
2022-12-31T08:06:39.869Z,1.93
2022-12-31T08:08:50.860Z,1.90
2022-12-31T08:11:03.278Z,1.87
2022-12-31T08:13:10.944Z,1.70
2022-12-31T08:15:18.542Z,1.53
2022-12-31T08:17:22.132Z,2.30
2022-12-31T08:19:28.351Z,1.97
2022-12-31T08:21:37.825Z,2.90
2022-12-31T08:23:45.578Z,1.90
2022-12-31T08:26:00.511Z,3.07
2022-12-31T08:28:09.120Z,2.40
2022-12-31T08:30:16.287Z,2.17
2022-12-31T08:32:24.038Z,1.53
2022-12-31T08:34:32.418Z,1.60
2022-12-31T08:36:45.388Z,1.70
2022-12-31T08:38:52.378Z,1.60
2022-12-31T08:41:00.894Z,1.87
2022-12-31T08:43:14.018Z,1.50
2022-12-31T08:45:23.911Z,1.70
2022-12-31T08:47:38.189Z,3.30
2022-12-31T08:49:53.008Z,2.37
2022-12-31T08:54:19.679Z,3.27
2022-12-31T08:56:28.408Z,1.60
2022-12-31T08:58:40.973Z,2.30
2022-12-31T09:00:45.741Z,1.40
2022-12-31T09:03:02.533Z,2.13
2022-12-31T09:05:12.653Z,1.30
2022-12-31T09:07:17.557Z,1.40
2022-12-31T09:09:25.204Z,3.93
2022-12-31T09:11:33.553Z,2.50
2022-12-31T09:13:47.039Z,5.73
2022-12-31T09:15:56.222Z,2.33
2022-12-31T09:17:59.952Z,2.90
2022-12-31T09:20:03.683Z,1.93
2022-12-31T09:22:07.259Z,1.90
2022-12-31T09:24:13.276Z,1.87
2022-12-31T09:26:30.297Z,1.60
2022-12-31T09:28:39.559Z,1.67
2022-12-31T09:30:49.170Z,1.60
2022-12-31T09:33:03.127Z,2.97
2022-12-31T09:35:14.092Z,1.77
2022-12-31T09:37:21.838Z,1.53
2022-12-31T09:39:32.635Z,1.67
2022-12-31T09:41:58.183Z,2.40
2022-12-31T09:44:28.920Z,2.00
2022-12-31T09:47:08.514Z,1.77
2022-12-31T09:49:51.422Z,1.63
2022-12-31T09:51:59.151Z,2.73
2022-12-31T09:54:25.154Z,2.73
2022-12-31T09:56:31.109Z,1.60
2022-12-31T09:58:42.462Z,1.83
2022-12-31T10:00:53.488Z,4.80
2022-12-31T10:03:17.491Z,2.97
2022-12-31T10:05:36.505Z,2.93
2022-12-31T10:07:52.803Z,2.10
2022-12-31T10:10:07.418Z,5.23
2022-12-31T10:12:43.920Z,4.30
2022-12-31T10:14:58.128Z,2.60
2022-12-31T10:17:12.483Z,3.30
2022-12-31T10:19:52.898Z,1.60
2022-12-31T10:22:06.360Z,2.00
2022-12-31T10:24:44.630Z,3.57
2022-12-31T10:26:57.540Z,2.20
2022-12-31T10:29:08.395Z,2.03
2022-12-31T10:31:15.643Z,2.23
2022-12-31T10:33:29.997Z,1.93
2022-12-31T10:35:40.883Z,2.77
2022-12-31T10:37:49.764Z,1.50
2022-12-31T10:40:01.842Z,2.17
2022-12-31T10:42:35.962Z,2.30
2022-12-31T10:45:09.582Z,2.30
2022-12-31T10:47:47.808Z,7.67
2022-12-31T10:50:29.603Z,1.50
2022-12-31T10:53:02.029Z,1.93
2022-12-31T10:55:27.431Z,5.90
2022-12-31T10:57:43.097Z,1.90
2022-12-31T11:00:15.565Z,1.40
2022-12-31T11:02:37.843Z,2.37
2022-12-31T11:05:13.638Z,2.27
2022-12-31T11:07:43.639Z,1.80
2022-12-31T11:10:21.410Z,2.07
2022-12-31T11:12:42.059Z,2.37
2022-12-31T11:15:03.121Z,2.27
2022-12-31T11:17:22.552Z,8.20
2022-12-31T11:19:30.985Z,2.77
2022-12-31T11:21:44.967Z,2.20
2022-12-31T11:23:56.298Z,2.20
2022-12-31T11:26:08.713Z,2.03
2022-12-31T11:28:41.944Z,1.53
2022-12-31T11:30:56.963Z,1.90
2022-12-31T11:33:19.087Z,1.70
2022-12-31T11:38:27.909Z,2.60
2022-12-31T11:43:39.412Z,2.77
2022-12-31T11:46:54.400Z,2.60
2022-12-31T11:49:52.230Z,1.80
2022-12-31T11:52:11.867Z,3.50
2022-12-31T11:54:34.029Z,3.27
2022-12-31T11:56:41.752Z,1.80
2022-12-31T12:01:12.790Z,3.00
2022-12-31T12:03:16.434Z,2.43
2022-12-31T12:05:22.152Z,1.80
2022-12-31T12:07:25.373Z,1.47
2022-12-31T12:09:30.466Z,2.97
2022-12-31T12:11:36.752Z,2.63
2022-12-31T12:13:39.899Z,3.27
2022-12-31T12:15:48.295Z,1.30
2022-12-31T12:17:54.129Z,3.33
2022-12-31T12:19:57.882Z,1.40
2022-12-31T12:22:11.026Z,1.67
2022-12-31T12:24:21.096Z,1.90
2022-12-31T12:26:29.807Z,1.80
2022-12-31T12:28:44.654Z,4.43
2022-12-31T12:30:55.978Z,1.50
2022-12-31T12:33:01.239Z,3.00
2022-12-31T12:35:15.375Z,4.50
2022-12-31T12:37:32.351Z,2.20
2022-12-31T12:39:35.993Z,2.43
2022-12-31T12:41:39.096Z,2.07
2022-12-31T12:43:42.347Z,2.70
2022-12-31T12:45:52.124Z,3.37
2022-12-31T12:48:00.132Z,6.30
2022-12-31T12:50:03.342Z,3.13
2022-12-31T12:52:33.028Z,5.60
2022-12-31T12:54:44.772Z,5.60
2022-12-31T12:56:53.077Z,11.90
2022-12-31T12:59:17.461Z,1.70
2022-12-31T13:01:27.370Z,1.80
2022-12-31T13:04:33.452Z,1.67
2022-12-31T13:06:38.084Z,1.40
2022-12-31T13:08:56.288Z,2.20
2022-12-31T13:11:15.703Z,3.90
2022-12-31T13:13:25.832Z,7.47
2022-12-31T13:15:33.753Z,11.50
2022-12-31T13:17:53.335Z,1.97
2022-12-31T13:20:04.929Z,1.80
2022-12-31T13:22:12.771Z,1.30
2022-12-31T13:24:28.386Z,2.27
2022-12-31T13:26:35.186Z,4.43
2022-12-31T13:28:42.345Z,5.00
2022-12-31T13:30:49.289Z,1.50
2022-12-31T13:32:54.433Z,1.27
2022-12-31T13:35:01.995Z,7.77
2022-12-31T13:37:08.586Z,3.20
2022-12-31T13:39:16.729Z,1.93
2022-12-31T13:41:24.021Z,2.47
2022-12-31T13:43:37.074Z,1.70
2022-12-31T13:45:42.716Z,1.33
2022-12-31T13:47:48.081Z,3.33
2022-12-31T13:49:56.390Z,2.03
2022-12-31T13:52:04.297Z,5.90
2022-12-31T13:54:19.292Z,2.77
2022-12-31T13:56:25.741Z,7.10
2022-12-31T13:58:38.664Z,5.40
2022-12-31T14:01:01.468Z,5.00
2022-12-31T14:03:13.399Z,2.97
2022-12-31T14:05:20.192Z,11.43
2022-12-31T14:07:35.381Z,6.87
2022-12-31T14:09:42.643Z,2.70
2022-12-31T14:12:02.351Z,7.53
2022-12-31T14:14:14.940Z,3.50
2022-12-31T14:16:24.408Z,3.23
2022-12-31T14:18:33.256Z,2.80
2022-12-31T14:20:43.770Z,9.67
2022-12-31T14:22:51.795Z,1.80
2022-12-31T14:24:56.190Z,1.50
2022-12-31T14:27:02.311Z,2.33
2022-12-31T14:29:15.571Z,2.60
2022-12-31T14:31:26.553Z,1.40
2022-12-31T14:33:43.947Z,2.03
2022-12-31T14:35:56.187Z,2.40
2022-12-31T14:38:07.298Z,1.70
2022-12-31T14:40:19.465Z,1.70
2022-12-31T14:42:29.851Z,1.83
2022-12-31T14:44:47.958Z,2.13
2022-12-31T14:47:01.041Z,4.83
2022-12-31T14:49:17.140Z,2.30
2022-12-31T14:51:20.757Z,1.90
2022-12-31T14:53:27.530Z,3.20
2022-12-31T14:55:32.164Z,2.10
2022-12-31T14:58:01.737Z,6.03
2022-12-31T15:00:21.610Z,15.90
2022-12-31T15:02:28.608Z,2.50
2022-12-31T15:04:33.941Z,1.93
2022-12-31T15:06:52.787Z,2.60
2022-12-31T15:09:08.302Z,3.53
2022-12-31T15:11:25.185Z,3.03
2022-12-31T15:13:33.557Z,1.80
2022-12-31T15:15:44.737Z,2.63
2022-12-31T15:17:54.978Z,3.40
2022-12-31T15:20:29.252Z,2.20
2022-12-31T15:22:38.762Z,2.80
2022-12-31T15:24:46.085Z,6.23
2022-12-31T15:26:51.543Z,33.97
2022-12-31T15:28:59.616Z,41.40
2022-12-31T15:31:07.961Z,59.30
2022-12-31T15:33:21.899Z,62.63
2022-12-31T15:35:29.130Z,81.80
2022-12-31T15:37:34.233Z,62.10
2022-12-31T15:39:43.692Z,32.17
2022-12-31T15:42:35.508Z,3.37
2022-12-31T15:44:19.264Z,9.10
2022-12-31T15:46:25.112Z,4.50
2022-12-31T15:48:33.525Z,6.27
2022-12-31T15:50:38.362Z,3.63
2022-12-31T15:52:44.250Z,1.90
2022-12-31T15:54:49.632Z,2.57
2022-12-31T15:56:55.449Z,2.73
2022-12-31T15:59:00.823Z,3.93
2022-12-31T16:01:10.400Z,2.60
2022-12-31T16:03:21.567Z,4.93
2022-12-31T16:05:26.447Z,5.43
2022-12-31T16:07:31.952Z,3.73
2022-12-31T16:09:36.332Z,3.70
2022-12-31T16:11:41.810Z,3.07
2022-12-31T16:13:49.455Z,4.30
2022-12-31T16:15:57.452Z,5.70
2022-12-31T16:18:02.992Z,6.93
2022-12-31T16:20:23.523Z,4.10
2022-12-31T16:22:28.728Z,3.20
2022-12-31T16:24:33.784Z,5.70
2022-12-31T16:26:47.332Z,4.60
2022-12-31T16:28:52.134Z,5.57
2022-12-31T16:31:01.102Z,3.50
2022-12-31T16:33:05.886Z,3.70
2022-12-31T16:35:23.899Z,5.63
2022-12-31T16:37:29.046Z,4.10
2022-12-31T16:39:35.587Z,3.90
2022-12-31T16:41:43.524Z,5.53
2022-12-31T16:43:48.590Z,3.90
2022-12-31T16:45:54.076Z,6.00
2022-12-31T16:47:58.732Z,4.93
2022-12-31T16:50:05.737Z,6.23
2022-12-31T16:52:16.971Z,7.87
2022-12-31T16:54:29.887Z,4.40
2022-12-31T16:56:36.405Z,3.90
2022-12-31T16:58:45.250Z,5.03
2022-12-31T17:00:49.239Z,3.50
2022-12-31T17:03:02.090Z,3.00
2022-12-31T17:05:06.203Z,2.77
2022-12-31T17:07:42.721Z,5.33
2022-12-31T17:09:45.830Z,24.57
2022-12-31T17:11:57.048Z,14.80
2022-12-31T17:14:10.202Z,21.37
2022-12-31T17:16:19.024Z,10.80
2022-12-31T17:18:25.324Z,7.83
2022-12-31T17:20:31.189Z,10.00
2022-12-31T17:22:40.924Z,21.30
2022-12-31T17:24:44.705Z,8.37
2022-12-31T17:26:48.417Z,9.20
2022-12-31T17:28:53.625Z,6.03
2022-12-31T17:31:03.669Z,9.90
2022-12-31T17:33:31.438Z,7.47
2022-12-31T17:35:36.942Z,11.83
2022-12-31T17:37:42.703Z,17.63
2022-12-31T17:39:50.146Z,15.37
2022-12-31T17:42:00.665Z,20.90
2022-12-31T17:44:06.263Z,22.93
2022-12-31T17:46:13.168Z,21.13
2022-12-31T17:48:19.120Z,24.80
2022-12-31T17:50:27.131Z,98.83
2022-12-31T17:52:31.375Z,55.37
2022-12-31T17:54:35.146Z,35.93
2022-12-31T17:56:38.585Z,91.40
2022-12-31T17:58:45.103Z,28.90
2022-12-31T18:00:48.597Z,20.27
2022-12-31T18:02:52.200Z,15.17
2022-12-31T18:04:55.439Z,19.23
2022-12-31T18:06:59.998Z,37.50
2022-12-31T18:09:03.721Z,44.37
2022-12-31T18:11:07.139Z,49.07
2022-12-31T18:13:15.940Z,29.93
2022-12-31T18:15:21.352Z,23.37
2022-12-31T18:17:24.746Z,20.40
2022-12-31T18:20:03.100Z,30.63
2022-12-31T18:21:51.673Z,29.03
2022-12-31T18:25:59.377Z,35.97
2022-12-31T18:28:04.134Z,41.10
2022-12-31T18:30:10.446Z,50.73
2022-12-31T18:32:21.170Z,52.43
2022-12-31T18:34:29.586Z,43.03
2022-12-31T18:36:32.884Z,42.03
2022-12-31T18:38:36.138Z,44.20
2022-12-31T18:40:44.484Z,42.87
2022-12-31T18:42:48.216Z,27.23
2022-12-31T18:44:51.426Z,32.53
2022-12-31T18:46:56.213Z,32.13
2022-12-31T18:48:59.357Z,18.43
2022-12-31T18:51:04.980Z,24.43
2022-12-31T18:53:08.586Z,25.10
2022-12-31T18:55:23.572Z,27.63
2022-12-31T18:57:28.078Z,22.17
2022-12-31T18:59:31.729Z,26.60
2022-12-31T19:01:36.604Z,24.10
2022-12-31T19:03:39.947Z,23.67
2022-12-31T19:05:44.599Z,17.03
2022-12-31T19:07:48.611Z,24.83
2022-12-31T19:09:58.149Z,25.17
2022-12-31T19:12:01.689Z,26.97
2022-12-31T19:14:23.064Z,28.93
2022-12-31T19:16:27.843Z,28.10
2022-12-31T19:18:31.664Z,56.67
2022-12-31T19:20:35.657Z,46.00
2022-12-31T19:22:38.850Z,39.57
2022-12-31T19:24:42.181Z,54.07
2022-12-31T19:26:45.357Z,35.80
2022-12-31T19:28:49.591Z,33.50
2022-12-31T19:30:56.081Z,248.73
2022-12-31T19:33:21.560Z,88.73
2022-12-31T19:35:25.646Z,57.93
2022-12-31T19:37:31.477Z,127.73
2022-12-31T19:39:39.695Z,77.00
2022-12-31T19:41:43.692Z,49.57
2022-12-31T19:44:14.263Z,38.93
2022-12-31T19:46:20.368Z,42.53
2022-12-31T19:48:32.392Z,33.30
2022-12-31T19:50:36.171Z,29.60
2022-12-31T19:52:39.262Z,25.90
2022-12-31T19:54:42.398Z,32.33
2022-12-31T19:56:45.440Z,28.90
2022-12-31T19:58:48.746Z,28.37
2022-12-31T20:00:58.232Z,34.83
2022-12-31T20:03:08.063Z,27.60
2022-12-31T20:05:12.374Z,29.63
2022-12-31T20:07:15.586Z,47.80
2022-12-31T20:09:18.785Z,32.03
2022-12-31T20:11:23.854Z,40.03
2022-12-31T20:13:27.334Z,38.57
2022-12-31T20:15:30.392Z,35.10
2022-12-31T20:17:33.452Z,36.03
2022-12-31T20:19:37.921Z,35.30
2022-12-31T20:21:41.903Z,32.37
2022-12-31T20:23:45.615Z,39.87
2022-12-31T20:25:57.953Z,38.30
2022-12-31T20:28:01.592Z,40.67
2022-12-31T20:30:05.190Z,40.57
2022-12-31T20:32:08.244Z,43.50
2022-12-31T20:34:11.829Z,41.97
2022-12-31T20:36:17.652Z,41.33
2022-12-31T20:38:21.171Z,45.47
2022-12-31T20:40:24.336Z,49.67
2022-12-31T20:42:27.451Z,72.37
2022-12-31T20:44:30.721Z,87.73
2022-12-31T20:46:34.140Z,86.20
2022-12-31T20:48:37.480Z,69.40
2022-12-31T20:50:40.485Z,66.67
2022-12-31T20:52:45.574Z,51.83
2022-12-31T20:54:48.659Z,41.97
2022-12-31T20:56:51.817Z,28.93
2022-12-31T20:58:54.880Z,16.30
2022-12-31T21:00:58.492Z,10.93
2022-12-31T21:03:14.186Z,19.60
2022-12-31T21:05:22.057Z,23.10
2022-12-31T21:07:25.348Z,15.93
2022-12-31T21:09:30.016Z,16.10
2022-12-31T21:11:50.895Z,36.43
2022-12-31T21:13:54.275Z,29.50
2022-12-31T21:15:59.086Z,18.03
2022-12-31T21:18:02.585Z,21.20
2022-12-31T21:20:07.116Z,48.93
2022-12-31T21:22:10.377Z,52.20
2022-12-31T21:24:20.151Z,67.90
2022-12-31T21:26:27.000Z,48.80
2022-12-31T21:28:30.770Z,23.90
2022-12-31T21:30:35.253Z,45.30
2022-12-31T21:32:38.433Z,37.30
2022-12-31T21:34:41.723Z,36.63
2022-12-31T21:36:44.959Z,47.63
2022-12-31T21:38:48.059Z,48.00
2022-12-31T21:40:51.405Z,49.90
2022-12-31T21:42:55.875Z,57.77
2022-12-31T21:45:00.147Z,56.73
2022-12-31T21:47:34.902Z,147.20
2022-12-31T21:49:38.744Z,71.03
2022-12-31T21:51:55.759Z,78.57
2022-12-31T21:54:00.482Z,66.93
2022-12-31T21:56:09.908Z,57.07
2022-12-31T21:58:26.879Z,61.07
2022-12-31T22:00:49.293Z,63.10
2022-12-31T22:03:10.586Z,71.60
2022-12-31T22:05:21.446Z,61.03
2022-12-31T22:07:28.716Z,69.17
2022-12-31T22:09:32.069Z,68.90
2022-12-31T22:11:35.460Z,77.37
2022-12-31T22:13:40.769Z,84.60
2022-12-31T22:15:44.969Z,71.63
2022-12-31T22:17:48.157Z,75.87
2022-12-31T22:20:25.187Z,81.70
2022-12-31T22:22:14.435Z,84.20
2022-12-31T22:24:17.727Z,79.17
2022-12-31T22:26:22.279Z,73.40
2022-12-31T22:28:38.218Z,62.30
2022-12-31T22:30:43.860Z,64.00
2022-12-31T22:32:47.000Z,43.57
2022-12-31T22:34:50.071Z,63.20
2022-12-31T22:36:53.437Z,65.10
2022-12-31T22:38:58.197Z,66.77
2022-12-31T22:41:08.259Z,65.00
2022-12-31T22:43:11.252Z,61.43
2022-12-31T22:45:14.370Z,851.07
2022-12-31T22:47:18.999Z,758.47
2022-12-31T22:49:22.292Z,584.93
2022-12-31T22:51:27.188Z,743.53
2022-12-31T22:53:34.017Z,466.90
2022-12-31T22:55:37.152Z,99.30
2022-12-31T22:57:40.092Z,101.40
2022-12-31T22:59:43.692Z,89.07
2022-12-31T23:01:46.711Z,211.50
2022-12-31T23:03:52.386Z,241.33
2022-12-31T23:05:55.636Z,406.23
2022-12-31T23:07:59.066Z,1468.07
2022-12-31T23:10:19.883Z,509.37
2022-12-31T23:12:22.940Z,961.07
2022-12-31T23:14:43.481Z,1420.27
2022-12-31T23:17:31.414Z,1189.47
2022-12-31T23:19:47.008Z,1135.00
2022-12-31T23:22:07.811Z,1038.63
2022-12-31T23:24:19.064Z,902.17
2022-12-31T23:26:24.617Z,742.93
2022-12-31T23:28:27.905Z,387.40
2022-12-31T23:30:31.057Z,366.40
2022-12-31T23:32:34.417Z,813.93
2022-12-31T23:34:38.918Z,866.83
2022-12-31T23:36:42.096Z,1130.00
2022-12-31T23:38:45.450Z,678.07
2022-12-31T23:40:48.826Z,790.07
2022-12-31T23:42:51.774Z,693.37
2022-12-31T23:44:54.824Z,607.77
2022-12-31T23:46:58.021Z,388.53
2022-12-31T23:49:01.523Z,391.27
2022-12-31T23:51:06.254Z,358.53
2022-12-31T23:53:09.308Z,353.03
2022-12-31T23:55:12.701Z,335.33
2022-12-31T23:57:15.959Z,389.83
2022-12-31T23:59:19.212Z,361.93
